Time;durP1;ratioP1;P1;durP2;ratioP2;P2;SDS_P1;SDS_P2;PMS_P1;PMS_P2;Temp;Humidity;BMP_temperature;BMP_pressure;BME280_temperature;BME280_humidity;BME280_pressure;Samples;Min_cycle;Max_cycle;Signal;HPM_P1;HPM_P2
2023/01/07 00:09:43;;;;;;;0.82;0.82;;;;;;;7.78;62.78;101139.47;18361806;32;20116;-57
2023/01/07 00:19:47;;;;;;;1.20;0.90;;;;;;;7.59;64.35;101143.38;18360150;32;20105;-58
2023/01/07 00:29:51;;;;;;;1.55;1.45;;;;;;;7.68;64.19;101155.69;18360625;32;20162;-58
2023/01/07 00:39:54;;;;;;;1.95;1.23;;;;;;;7.72;65.07;101158.38;18378245;32;20088;-58
2023/01/07 00:49:59;;;;;;;1.55;1.45;;;;;;;7.97;64.61;101160.66;18388586;32;20112;-58
2023/01/07 01:00:02;;;;;;;2.65;2.45;;;;;;;7.92;64.91;101147.56;18386120;32;20093;-58
2023/01/07 01:10:08;;;;;;;15.45;4.03;;;;;;;8.06;64.99;101153.00;18385892;32;20108;-58
2023/01/07 01:20:14;;;;;;;11.45;8.70;;;;;;;8.31;64.39;101163.91;18385582;32;20407;-58
2023/01/07 01:30:18;;;;;;;8.88;5.80;;;;;;;8.10;65.24;101167.84;18417529;32;20097;-58
2023/01/07 01:40:21;;;;;;;7.82;5.12;;;;;;;8.30;64.98;101162.16;18422347;32;20140;-58
2023/01/07 01:50:28;;;;;;;4.12;3.72;;;;;;;8.39;64.59;101154.53;18421442;32;20369;-58
2023/01/07 02:00:32;;;;;;;3.10;2.90;;;;;;;8.38;65.11;101167.50;18421354;32;20103;-57
2023/01/07 02:10:38;;;;;;;4.22;3.92;;;;;;;8.20;66.00;101145.47;18420629;32;20190;-58
2023/01/07 02:20:47;;;;;;;6.35;5.75;;;;;;;8.46;65.11;101124.28;18421599;32;20715;-57
2023/01/07 02:31:24;;;;;;;3.12;2.78;;;;;;;8.28;64.94;101102.28;18421381;32;20469;-57
2023/01/07 02:41:37;;;;;;;2.08;1.98;;;;;;;8.16;64.34;101105.56;18418560;32;20140;-58
2023/01/07 02:51:41;;;;;;;3.35;3.12;;;;;;;7.98;64.11;101113.00;18419145;32;20109;-58
2023/01/07 03:01:56;;;;;;;5.07;4.55;;;;;;;7.74;63.90;101114.25;18418532;32;20120;-58
2023/01/07 03:12:05;;;;;;;2.17;1.98;;;;;;;7.58;64.52;101124.28;18418685;32;20101;-57
2023/01/07 03:22:10;;;;;;;3.08;2.85;;;;;;;7.50;65.44;101110.28;18418812;32;20084;-58
2023/01/07 03:32:16;;;;;;;2.00;1.58;;;;;;;7.52;65.03;101099.91;18416964;32;20150;-57
2023/01/07 03:42:41;;;;;;;1.08;0.98;;;;;;;7.40;64.33;101106.59;18416997;32;20107;-58
2023/01/07 03:52:44;;;;;;;2.10;1.50;;;;;;;7.08;64.32;101107.59;18416635;31;81418;-58
2023/01/07 04:02:49;;;;;;;1.62;1.52;;;;;;;6.84;64.27;101104.44;18426790;32;20111;-57
2023/01/07 04:12:52;;;;;;;3.78;3.47;;;;;;;6.58;64.05;101099.47;18425668;32;20152;-58
2023/01/07 04:22:56;;;;;;;1.23;1.10;;;;;;;6.28;64.66;101101.28;18425215;32;20097;-58
2023/01/07 04:33:00;;;;;;;1.65;1.55;;;;;;;6.03;64.98;101110.12;18424976;32;20116;-58
2023/01/07 04:43:04;;;;;;;0.65;0.65;;;;;;;6.00;64.68;101112.59;18424548;32;20096;-58
2023/01/07 04:53:08;;;;;;;1.83;1.73;;;;;;;5.82;64.22;101121.59;18425486;32;20120;-58
2023/01/07 05:03:12;;;;;;;1.02;1.02;;;;;;;5.46;64.57;101111.91;18423379;32;20088;-58
2023/01/07 05:13:15;;;;;;;1.17;1.17;;;;;;;4.96;66.24;101115.56;18423033;32;20104;-57
2023/01/07 05:23:20;;;;;;;1.52;1.42;;;;;;;5.07;64.64;101103.81;18423123;32;20445;-58
2023/01/07 05:33:23;;;;;;;1.83;1.73;;;;;;;4.86;65.31;101102.31;18422573;32;20105;-58
2023/01/07 05:43:28;;;;;;;2.70;2.53;;;;;;;4.80;65.41;101111.59;18423250;32;20093;-57
2023/01/07 05:53:31;;;;;;;5.18;3.70;;;;;;;4.78;65.01;101106.34;18421982;32;20463;-58
2023/01/07 06:03:35;;;;;;;2.47;2.37;;;;;;;4.72;64.88;101116.50;18421243;32;20380;-58
2023/01/07 06:13:38;;;;;;;1.85;1.77;;;;;;;4.56;65.07;101131.50;18420709;32;20111;-57
2023/01/07 06:23:43;;;;;;;0.73;0.73;;;;;;;4.42;65.06;101120.69;18420454;32;20090;-57
2023/01/07 06:33:46;;;;;;;3.72;3.53;;;;;;;4.53;65.06;101118.47;18420067;32;20089;-57
2023/01/07 06:43:50;;;;;;;1.12;1.12;;;;;;;4.37;65.62;101113.59;18420695;32;20107;-57
2023/01/07 06:53:54;;;;;;;1.00;1.00;;;;;;;4.50;65.54;101117.47;18418753;32;20115;-57
2023/01/07 07:03:58;;;;;;;2.72;2.53;;;;;;;4.65;65.99;101136.09;18418419;32;20403;-57
2023/01/07 07:14:02;;;;;;;2.25;2.15;;;;;;;4.70;66.56;101152.66;18418138;32;20116;-57
2023/01/07 07:24:07;;;;;;;1.05;1.00;;;;;;;5.39;65.39;101155.72;18418840;32;20100;-57
2023/01/07 07:34:10;;;;;;;6.82;1.87;;;;;;;6.29;64.83;101149.72;18426409;32;20157;-57
2023/01/07 07:44:15;;;;;;;3.62;3.40;;;;;;;7.27;64.08;101154.78;18426855;32;20381;-58
2023/01/07 07:54:18;;;;;;;3.62;3.33;;;;;;;7.38;61.71;101156.75;18426370;31;20169;-57
2023/01/07 08:04:27;;;;;;;2.15;2.05;;;;;;;7.82;62.06;101154.28;18405264;32;20100;-58
2023/01/07 08:14:31;;;;;;;2.83;2.62;;;;;;;8.04;62.67;101157.31;18373874;32;20141;-58
2023/01/07 08:24:35;;;;;;;0.60;0.60;;;;;;;8.14;63.11;101148.00;18423836;32;20471;-57
2023/01/07 08:34:39;;;;;;;1.80;1.70;;;;;;;8.45;64.94;101148.56;18424445;32;20353;-57
2023/01/07 08:44:43;;;;;;;1.75;0.80;;;;;;;8.73;64.67;101139.56;18423638;32;20093;-58
2023/01/07 08:54:46;;;;;;;0.80;0.80;;;;;;;8.49;65.90;101149.50;18423751;31;20478;-58
2023/01/07 09:04:51;;;;;;;1.15;1.05;;;;;;;8.41;66.08;101151.97;18423574;32;20170;-58
2023/01/07 09:14:54;;;;;;;1.70;1.60;;;;;;;8.80;65.19;101143.16;18423162;32;20105;-58
2023/01/07 09:24:59;;;;;;;0.95;0.95;;;;;;;9.22;64.37;101151.66;18422672;32;20089;-58
2023/01/07 09:35:02;;;;;;;1.17;1.17;;;;;;;9.39;64.19;101151.00;18422710;32;20093;-58
2023/01/07 09:45:14;;;;;;;2.67;1.90;;;;;;;9.64;64.21;101143.53;18422145;32;20511;-58
2023/01/07 09:55:21;;;;;;;2.83;2.47;;;;;;;9.99;63.71;101120.50;18421006;31;20145;-57
2023/01/07 10:05:33;;;;;;;3.25;2.33;;;;;;;10.38;62.98;101113.09;18412843;32;20108;-58
2023/01/07 10:15:43;;;;;;;3.53;2.67;;;;;;;10.80;61.90;101110.91;18407531;32;20089;-58
2023/01/07 10:25:49;;;;;;;1.50;1.35;;;;;;;11.06;61.80;101091.97;18392076;32;20097;-58
2023/01/07 10:35:57;;;;;;;1.65;0.75;;;;;;;11.52;59.97;101074.78;18386202;32;20112;-58
2023/01/07 10:46:22;;;;;;;1.90;1.80;;;;;;;11.93;59.74;101070.56;18349589;32;20435;-58
2023/01/07 10:56:29;;;;;;;2.12;1.37;;;;;;;11.90;59.72;101058.38;18345066;32;20130;-58
2023/01/07 11:06:38;;;;;;;1.27;1.20;;;;;;;12.50;58.63;101046.25;18348903;32;20369;-58
2023/01/07 11:16:47;;;;;;;1.85;0.65;;;;;;;12.78;58.44;101033.16;18400406;32;20093;-58
2023/01/07 11:26:52;;;;;;;1.40;1.33;;;;;;;12.98;58.11;101020.03;18395766;32;20391;-58
2023/01/07 11:36:56;;;;;;;2.03;1.80;;;;;;;13.22;57.60;101012.97;18375850;31;20155;-58
2023/01/07 11:47:00;;;;;;;0.65;0.65;;;;;;;13.35;57.64;101005.91;18375806;32;20092;-58
2023/01/07 11:57:16;;;;;;;0.70;0.70;;;;;;;13.43;57.40;100987.56;18413422;31;20123;-58
2023/01/07 12:07:22;;;;;;;1.55;0.98;;;;;;;13.66;56.87;100983.97;18361665;32;20116;-58
2023/01/07 12:17:28;;;;;;;0.70;0.65;;;;;;;13.61;57.22;100960.38;18354904;32;20090;-58
2023/01/07 12:27:38;;;;;;;0.75;0.75;;;;;;;13.71;57.02;100948.09;18380157;32;20085;-59
2023/01/07 12:37:44;;;;;;;3.72;1.20;;;;;;;13.70;57.56;100943.69;18390800;32;20459;-58
2023/01/07 12:47:51;;;;;;;1.33;1.25;;;;;;;13.87;57.10;100931.34;18370678;32;20429;-58
2023/01/07 12:58:05;;;;;;;0.50;0.50;;;;;;;14.07;56.78;100929.44;18359074;32;20093;-58
2023/01/07 13:08:14;;;;;;;1.40;1.02;;;;;;;13.80;57.60;100927.03;18352453;32;20370;-58
2023/01/07 13:18:19;;;;;;;0.40;0.40;;;;;;;13.44;58.07;100918.47;18392678;32;20182;-58
2023/01/07 13:29:00;;;;;;;0.45;0.45;;;;;;;13.12;57.53;100917.75;18395030;32;20108;-58
2023/01/07 13:39:27;;;;;;;1.35;1.25;;;;;;;12.89;58.65;100910.84;18416292;31;20077;-58
2023/01/07 13:49:34;;;;;;;0.62;0.62;;;;;;;12.13;61.68;100911.03;18411879;32;20116;-58
2023/01/07 13:59:48;;;;;;;0.80;0.80;;;;;;;11.88;62.41;100907.50;18418917;32;20089;-58
2023/01/07 14:09:55;;;;;;;0.62;0.62;;;;;;;12.10;61.25;100907.53;18415669;32;20145;-58
2023/01/07 14:20:03;;;;;;;0.50;0.50;;;;;;;11.38;62.93;100925.69;18352461;32;20346;-58
2023/01/07 14:30:19;;;;;;;1.60;1.37;;;;;;;11.93;61.35;100924.06;18350835;32;20491;-60
2023/01/07 14:40:52;;;;;;;1.27;1.05;;;;;;;11.65;61.25;100930.16;18356361;32;20090;-58
2023/01/07 14:51:09;;;;;;;0.60;0.60;;;;;;;11.58;61.89;100927.53;18153246;32;20173;-58
2023/01/07 15:01:36;;;;;;;3.35;1.50;;;;;;;11.41;62.10;100930.06;18154441;32;20121;-58
2023/01/07 15:22:11;;;;;;;0.68;0.68;;;;;;;11.13;63.27;100929.97;18425301;32;20113;-58
2023/01/07 15:32:26;;;;;;;0.62;0.62;;;;;;;11.79;60.28;100942.34;18378103;32;20089;-59
2023/01/07 15:42:31;;;;;;;1.55;1.45;;;;;;;11.68;60.12;100944.97;18386228;32;20137;-59
2023/01/07 15:52:36;;;;;;;3.10;2.80;;;;;;;11.40;60.59;100952.75;18398852;32;20568;-58
2023/01/07 16:02:42;;;;;;;2.67;2.50;;;;;;;10.35;64.78;100960.84;18397652;32;20425;-58
2023/01/07 16:12:48;;;;;;;0.88;0.88;;;;;;;8.70;70.41;100961.63;18384386;32;20383;-58
2023/01/07 16:22:59;;;;;;;0.70;0.70;;;;;;;8.15;72.91;100973.75;18355073;32;20089;-58
2023/01/07 16:33:05;;;;;;;5.43;4.03;;;;;;;8.37;70.87;100984.53;18374183;31;20190;-58
2023/01/07 16:43:30;;;;;;;3.22;2.00;;;;;;;8.62;69.01;100991.88;18364578;32;20105;-58
2023/01/07 16:53:35;;;;;;;0.95;0.90;;;;;;;8.60;69.39;100995.34;18387683;32;20468;-58
2023/01/07 17:03:47;;;;;;;2.25;1.80;;;;;;;8.83;68.61;100999.16;18379527;32;20110;-58
2023/01/07 17:13:54;;;;;;;1.23;1.20;;;;;;;8.85;68.78;100990.47;18379317;32;20092;-58
2023/01/07 17:23:58;;;;;;;1.10;1.10;;;;;;;9.22;67.76;100995.34;18405405;32;20105;-58
2023/01/07 17:34:03;;;;;;;1.45;1.08;;;;;;;8.69;70.29;101002.41;18394027;32;20734;-58
2023/01/07 17:44:10;;;;;;;2.22;2.00;;;;;;;8.86;69.67;101005.25;18410753;32;20486;-58
2023/01/07 17:54:20;;;;;;;1.25;1.15;;;;;;;8.93;69.56;101006.22;18371993;32;20092;-58
2023/01/07 18:04:23;;;;;;;1.62;1.58;;;;;;;8.85;70.01;101007.84;18366764;31;20112;-59
2023/01/07 18:14:27;;;;;;;0.88;0.88;;;;;;;8.27;71.86;101006.91;18379662;32;20372;-58
2023/01/07 18:24:31;;;;;;;0.85;0.85;;;;;;;8.76;71.04;101005.09;18371449;32;20124;-58
2023/01/07 18:34:36;;;;;;;0.70;0.70;;;;;;;8.55;71.52;101014.34;18352098;32;20098;-58
2023/01/07 18:44:39;;;;;;;1.45;1.35;;;;;;;8.61;71.29;101011.81;18352502;32;20109;-58
2023/01/07 18:54:44;;;;;;;3.58;2.53;;;;;;;8.88;70.71;101010.47;18390420;31;20136;-58
2023/01/07 19:04:47;;;;;;;0.70;0.70;;;;;;;9.24;69.28;101001.44;18375273;32;20116;-58
2023/01/07 19:14:52;;;;;;;1.05;1.05;;;;;;;9.26;68.91;100994.50;18386891;32;20096;-58
2023/01/07 19:24:55;;;;;;;1.05;1.05;;;;;;;9.34;68.83;100996.34;18411797;32;20434;-58
2023/01/07 19:35:00;;;;;;;0.93;0.90;;;;;;;9.29;68.98;100994.56;18424575;32;20112;-58
2023/01/07 19:45:05;;;;;;;7.93;2.70;;;;;;;9.36;68.89;100977.28;18415071;32;20473;-57
2023/01/07 19:55:10;;;;;;;0.77;0.77;;;;;;;9.48;68.59;100981.72;18360115;32;20173;-58
2023/01/07 20:05:13;;;;;;;1.50;1.45;;;;;;;9.41;68.72;100979.94;18360791;32;20101;-58
2023/01/07 20:15:17;;;;;;;1.85;1.75;;;;;;;9.30;69.15;100974.56;18359127;32;20396;-58
2023/01/07 20:25:21;;;;;;;2.42;1.90;;;;;;;9.21;69.96;100966.66;18357457;32;20509;-58
2023/01/07 20:35:25;;;;;;;1.15;1.05;;;;;;;9.44;68.94;100964.31;18361703;32;20093;-58
2023/01/07 20:45:28;;;;;;;1.52;1.42;;;;;;;9.53;68.73;100954.00;18411116;32;20082;-58
2023/01/07 20:55:33;;;;;;;1.42;1.33;;;;;;;9.62;68.28;100949.75;18357026;32;20089;-58
2023/01/07 21:05:37;;;;;;;2.70;2.47;;;;;;;9.66;68.04;100939.38;18359986;32;20111;-58
2023/01/07 21:15:42;;;;;;;2.95;1.85;;;;;;;9.46;68.94;100933.94;18355176;32;20113;-58
2023/01/07 21:25:46;;;;;;;1.77;1.65;;;;;;;9.44;69.01;100935.66;18407146;32;20125;-58
2023/01/07 21:35:51;;;;;;;1.30;1.25;;;;;;;9.50;68.81;100917.50;18366177;32;20108;-59
2023/01/07 21:45:54;;;;;;;1.37;1.27;;;;;;;9.52;68.90;100920.97;18356404;32;20537;-58
2023/01/07 21:56:05;;;;;;;1.75;1.60;;;;;;;9.54;68.90;100913.19;18357087;31;20456;-58
2023/01/07 22:06:19;;;;;;;15.00;2.30;;;;;;;9.61;68.78;100916.72;18387335;32;20120;-58
2023/01/07 22:16:25;;;;;;;0.60;0.60;;;;;;;9.48;69.41;100903.53;18354267;32;20385;-57
2023/01/07 22:26:29;;;;;;;1.23;1.12;;;;;;;9.54;69.22;100902.75;18350439;32;20141;-58
2023/01/07 22:36:38;;;;;;;0.95;0.95;;;;;;;9.42;69.68;100887.87;18353765;32;20089;-58
2023/01/07 22:46:43;;;;;;;2.58;2.37;;;;;;;9.44;69.40;100881.81;18354380;32;20101;-58
2023/01/07 22:56:48;;;;;;;1.23;1.23;;;;;;;9.51;69.29;100874.03;18406922;31;20093;-58
2023/01/07 23:06:51;;;;;;;1.77;1.37;;;;;;;9.48;69.52;100863.59;18416375;32;20089;-58
2023/01/07 23:16:57;;;;;;;0.93;0.93;;;;;;;9.30;70.08;100845.19;18363840;32;20085;-58
2023/01/07 23:27:01;;;;;;;1.62;1.48;;;;;;;9.47;69.39;100847.06;18349615;32;20178;-58
2023/01/07 23:37:05;;;;;;;0.70;0.70;;;;;;;9.02;71.41;100824.06;18460438;31;20140;-58
2023/01/07 23:47:09;;;;;;;0.80;0.80;;;;;;;9.28;70.34;100823.44;18420238;31;20093;-58
2023/01/07 23:57:13;;;;;;;4.22;2.33;;;;;;;9.26;70.63;100819.94;18415289;31;20097;-58
